Time;durP1;ratioP1;P1;durP2;ratioP2;P2;SDS_P1;SDS_P2;PMS_P1;PMS_P2;Temp;Humidity;BMP_temperature;BMP_pressure;BME280_temperature;BME280_humidity;BME280_pressure;Samples;Min_cycle;Max_cycle;Signal;HPM_P1;HPM_P2
2021/12/02 00:00:41;;;;;;;1;0.9;;;;;;;4.48;93.91113;921.6542;;;;
2021/12/02 00:03:12;;;;;;;1.1;0.9;;;;;;;4.39;94.18359;921.6069;;;;
2021/12/02 00:05:37;;;;;;;0.7;0.7;;;;;;;4.34;94.70215;921.4988;;;;
2021/12/02 00:08:02;;;;;;;2;1.6;;;;;;;4.41;94.12207;921.5584;;;;
2021/12/02 00:10:30;;;;;;;140.9;59.1;;;;;;;4.4;93.31934;921.5037;;;;
2021/12/02 00:12:54;;;;;;;0.7;0.6;;;;;;;4.33;94.19238;921.553;;;;
2021/12/02 00:15:23;;;;;;;0.6;0.6;;;;;;;4.31;94.23535;921.6042;;;;
2021/12/02 00:17:52;;;;;;;1;0.6;;;;;;;4.25;94.09766;921.5826;;;;
2021/12/02 00:22:34;;;;;;;0.5;0.5;;;;;;;4.38;93.9248;921.5825;;;;
2021/12/02 00:24:59;;;;;;;1;1;;;;;;;4.4;93.74902;921.6223;;;;
2021/12/02 00:27:24;;;;;;;2.5;1.5;;;;;;;4.38;93.13672;921.6345;;;;
2021/12/02 00:29:50;;;;;;;1.5;1.1;;;;;;;4.35;93.36328;921.6523;;;;
2021/12/02 00:32:15;;;;;;;1.6;1;;;;;;;4.42;92.91992;921.5988;;;;
2021/12/02 00:34:41;;;;;;;1.1;1;;;;;;;4.49;92.49609;921.5731;;;;
2021/12/02 00:37:06;;;;;;;0.9;0.8;;;;;;;4.52;92.07422;921.5535;;;;
2021/12/02 00:39:32;;;;;;;1.1;0.7;;;;;;;4.4;92.95898;921.592;;;;
2021/12/02 00:41:57;;;;;;;1.3;0.6;;;;;;;4.36;93.3125;921.5966;;;;
2021/12/02 00:44:24;;;;;;;0.3;0.3;;;;;;;4.22;93.70898;921.6249;;;;
2021/12/02 00:46:50;;;;;;;0.4;0.4;;;;;;;4.31;94.06641;921.7838;;;;
2021/12/02 00:49:15;;;;;;;0.2;0.2;;;;;;;4.21;94.04395;921.7202;;;;
2021/12/02 00:51:40;;;;;;;0.2;0.2;;;;;;;4.23;94.98242;921.8234;;;;
2021/12/02 00:54:07;;;;;;;0.2;0.2;;;;;;;4.24;94.92773;921.7645;;;;
2021/12/02 00:56:32;;;;;;;0.8;0.4;;;;;;;4.3;94.80469;921.7435;;;;
2021/12/02 00:58:58;;;;;;;0.7;0.2;;;;;;;4.2;94.88574;921.7048;;;;
2021/12/02 01:01:24;;;;;;;0.5;0.5;;;;;;;4.23;95.41895;921.7817;;;;
2021/12/02 01:03:49;;;;;;;1.8;0.8;;;;;;;4.21;95.84473;921.8147;;;;
2021/12/02 01:06:15;;;;;;;1.7;0.6;;;;;;;4.21;96.05664;921.736;;;;
2021/12/02 01:08:41;;;;;;;0.7;0.7;;;;;;;4.24;95.42285;921.651;;;;
2021/12/02 01:11:07;;;;;;;0.5;0.5;;;;;;;4.27;95.10254;921.6505;;;;
2021/12/02 01:13:32;;;;;;;0.3;0.3;;;;;;;4.21;94.92188;921.6115;;;;
2021/12/02 01:15:57;;;;;;;0.1;0.1;;;;;;;4.21;95.05469;921.7769;;;;
2021/12/02 01:18:23;;;;;;;0.5;0.5;;;;;;;3.82;96.23828;921.7469;;;;
2021/12/02 01:20:47;;;;;;;0.5;0.4;;;;;;;3.96;96.63086;921.6628;;;;
2021/12/02 01:23:15;;;;;;;0.3;0.3;;;;;;;4.02;96.06055;921.6841;;;;
2021/12/02 01:25:40;;;;;;;0.2;0.2;;;;;;;4.17;95.12598;921.5959;;;;
2021/12/02 01:28:05;;;;;;;0.4;0.4;;;;;;;4.27;93.97754;921.5519;;;;
2021/12/02 01:30:33;;;;;;;0.8;0.4;;;;;;;4.28;94.25195;921.6347;;;;
2021/12/02 01:32:58;;;;;;;0.3;0.3;;;;;;;4.36;93.85352;921.4832;;;;
2021/12/02 01:35:25;;;;;;;0.3;0.3;;;;;;;4.34;94.09473;921.5381;;;;
2021/12/02 01:37:50;;;;;;;0.2;0.2;;;;;;;4.27;94.5293;921.6166;;;;
2021/12/02 01:40:18;;;;;;;0.4;0.4;;;;;;;4.25;94.33594;921.5511;;;;
2021/12/02 01:42:43;;;;;;;0.3;0.3;;;;;;;4.23;94.27539;921.5714;;;;
2021/12/02 01:45:13;;;;;;;0.4;0.4;;;;;;;4.23;94.34082;921.5596;;;;
2021/12/02 01:47:41;;;;;;;0.5;0.2;;;;;;;4.4;92.7334;921.5156;;;;
2021/12/02 01:50:06;;;;;;;0.4;0.4;;;;;;;4.31;93.38867;921.5372;;;;
2021/12/02 01:52:33;;;;;;;0.3;0.3;;;;;;;4.37;92.89844;921.5367;;;;
2021/12/02 01:54:58;;;;;;;0.7;0.3;;;;;;;4.36;93.08594;921.5642;;;;
2021/12/02 01:57:23;;;;;;;0.3;0.3;;;;;;;4.37;92.75195;921.5178;;;;
2021/12/02 01:59:51;;;;;;;0.3;0.3;;;;;;;4.33;93.30273;921.5452;;;;
2021/12/02 02:02:16;;;;;;;0.2;0.2;;;;;;;4.3;93.30859;921.4749;;;;
2021/12/02 02:04:41;;;;;;;0.2;0.2;;;;;;;4.39;93.03711;921.4367;;;;
2021/12/02 02:07:07;;;;;;;0.2;0.2;;;;;;;4.35;93.00488;921.3444;;;;
2021/12/02 02:09:32;;;;;;;0.3;0.3;;;;;;;4.17;93.74219;921.3597;;;;
2021/12/02 02:12:01;;;;;;;0.2;0.2;;;;;;;4.23;94.09375;921.4147;;;;
2021/12/02 02:14:26;;;;;;;0.3;0.3;;;;;;;4.2;93.73828;921.4953;;;;
2021/12/02 02:17:10;;;;;;;1.1;0.2;;;;;;;4.21;94.04395;921.5492;;;;
2021/12/02 02:19:34;;;;;;;0.3;0.3;;;;;;;4.3;93.63672;921.5167;;;;
2021/12/02 02:22:02;;;;;;;0.3;0.3;;;;;;;4.04;93.30957;921.5069;;;;
2021/12/02 02:29:24;;;;;;;0.5;0.3;;;;;;;3.97;94.73438;921.522;;;;
2021/12/02 02:31:49;;;;;;;0.3;0.3;;;;;;;4.09;94.6123;921.5781;;;;
2021/12/02 02:34:16;;;;;;;0.3;0.3;;;;;;;4.16;93.81836;921.5006;;;;
2021/12/02 02:36:50;;;;;;;0.1;0.1;;;;;;;4.06;93.15625;921.5039;;;;
2021/12/02 02:39:06;;;;;;;0.2;0.2;;;;;;;4.04;93.17383;921.5692;;;;
2021/12/02 02:41:36;;;;;;;0.2;0.2;;;;;;;3.79;95.01855;921.5566;;;;
2021/12/02 02:44:00;;;;;;;1.7;0.3;;;;;;;3.95;94.85449;921.5076;;;;
2021/12/02 02:46:30;;;;;;;0.2;0.2;;;;;;;3.8;95.13281;921.4;;;;
2021/12/02 02:49:01;;;;;;;0.6;0.3;;;;;;;3.51;96.68555;921.4613;;;;
2021/12/02 02:51:30;;;;;;;0.3;0.2;;;;;;;3.48;96.83691;921.3564;;;;
2021/12/02 02:53:55;;;;;;;0.3;0.3;;;;;;;3.51;97.05664;921.4818;;;;
2021/12/02 02:56:25;;;;;;;0.4;0.4;;;;;;;3.56;96.98828;921.5144;;;;
2021/12/02 02:59:03;;;;;;;0.3;0.3;;;;;;;3.5;96.75098;921.4369;;;;
2021/12/02 03:01:34;;;;;;;0.4;0.4;;;;;;;3.63;96.81348;921.5358;;;;
2021/12/02 03:04:02;;;;;;;0.3;0.3;;;;;;;3.81;95.54004;921.4484;;;;
2021/12/02 03:06:31;;;;;;;0.3;0.3;;;;;;;3.85;94.99902;921.4125;;;;
2021/12/02 03:08:54;;;;;;;1.1;0.5;;;;;;;3.81;94.41602;921.4532;;;;
2021/12/02 03:11:17;;;;;;;0.5;0.4;;;;;;;3.67;94.57617;921.4172;;;;
2021/12/02 03:13:47;;;;;;;0.4;0.4;;;;;;;3.7;94.73047;921.416;;;;
2021/12/02 03:18:37;;;;;;;0.4;0.4;;;;;;;3.63;94.76855;921.4807;;;;
2021/12/02 03:21:06;;;;;;;0.5;0.5;;;;;;;3.62;94.62109;921.4451;;;;
2021/12/02 03:23:31;;;;;;;0.3;0.3;;;;;;;3.65;94.4375;921.4849;;;;
2021/12/02 03:25:59;;;;;;;0.4;0.4;;;;;;;3.57;93.74316;921.3445;;;;
2021/12/02 03:28:30;;;;;;;0.4;0.4;;;;;;;3.58;93.91602;921.4824;;;;
2021/12/02 03:31:03;;;;;;;0.5;0.4;;;;;;;3.45;94.38086;921.4545;;;;
2021/12/02 03:33:34;;;;;;;0.6;0.4;;;;;;;3.47;94.32129;921.4036;;;;
2021/12/02 03:36:01;;;;;;;0.3;0.3;;;;;;;3.48;93.96191;921.3981;;;;
2021/12/02 03:38:32;;;;;;;0.4;0.4;;;;;;;3.53;93.3877;921.3482;;;;
2021/12/02 03:40:57;;;;;;;1;0.6;;;;;;;3.28;93.43457;921.3097;;;;
2021/12/02 03:43:27;;;;;;;0.3;0.3;;;;;;;3.28;94.32227;921.3592;;;;
2021/12/02 03:45:52;;;;;;;0.7;0.4;;;;;;;3.35;94.3584;921.418;;;;
2021/12/02 03:48:20;;;;;;;0.4;0.4;;;;;;;3.31;94.2959;921.343;;;;
2021/12/02 03:50:45;;;;;;;0.6;0.3;;;;;;;3.14;95.17676;921.2656;;;;
2021/12/02 03:53:13;;;;;;;0.6;0.4;;;;;;;3.17;95.02734;921.2455;;;;
2021/12/02 03:55:38;;;;;;;0.6;0.6;;;;;;;3.26;94.38281;921.3251;;;;
2021/12/02 03:58:06;;;;;;;0.6;0.6;;;;;;;3.27;94.51074;921.2781;;;;
2021/12/02 04:08:45;;;;;;;1.1;0.7;;;;;;;3.24;95.00781;921.2833;;;;
2021/12/02 04:11:18;;;;;;;0.7;0.7;;;;;;;3.29;95.10059;921.3192;;;;
2021/12/02 04:13:35;;;;;;;0.7;0.6;;;;;;;3.26;95.31738;921.2434;;;;
2021/12/02 04:16:02;;;;;;;0.6;0.6;;;;;;;3.41;94.93359;921.2371;;;;
2021/12/02 04:18:25;;;;;;;1;0.9;;;;;;;3.4;94.71875;921.2336;;;;
2021/12/02 04:20:58;;;;;;;2.1;1.2;;;;;;;3.36;94.70996;921.1822;;;;
2021/12/02 04:23:43;;;;;;;0.8;0.8;;;;;;;3.36;95.18164;921.1609;;;;
2021/12/02 04:26:15;;;;;;;1.3;0.8;;;;;;;3.36;94.45215;921.0539;;;;
2021/12/02 04:28:47;;;;;;;1.3;0.6;;;;;;;3.34;93.94336;921.2213;;;;
2021/12/02 04:31:14;;;;;;;1.4;0.7;;;;;;;3.46;93.32715;921.2736;;;;
2021/12/02 04:33:39;;;;;;;1.1;1;;;;;;;3.4;93.83105;921.2957;;;;
2021/12/02 04:36:04;;;;;;;0.8;0.8;;;;;;;3.36;94.3623;921.2522;;;;
2021/12/02 04:38:31;;;;;;;0.8;0.8;;;;;;;3.4;94.69629;921.3146;;;;
2021/12/02 04:40:56;;;;;;;1.4;0.9;;;;;;;3.49;94.59277;921.3447;;;;
2021/12/02 04:43:23;;;;;;;1.2;1;;;;;;;3.5;94.83008;921.3865;;;;
2021/12/02 04:45:48;;;;;;;0.7;0.7;;;;;;;3.6;94.34668;921.4447;;;;
2021/12/02 04:48:16;;;;;;;1;0.6;;;;;;;3.54;94.2207;921.4702;;;;
2021/12/02 04:50:41;;;;;;;0.9;0.7;;;;;;;3.56;94.44922;921.4459;;;;
2021/12/02 04:53:09;;;;;;;0.6;0.6;;;;;;;3.59;94.70605;921.517;;;;
2021/12/02 04:55:35;;;;;;;1;1;;;;;;;3.55;94.46094;921.4373;;;;
2021/12/02 04:58:03;;;;;;;1.3;1.2;;;;;;;3.45;94.79785;921.5497;;;;
2021/12/02 05:00:28;;;;;;;1.5;1.2;;;;;;;3.59;94.35645;921.6445;;;;
2021/12/02 05:02:54;;;;;;;1.7;1.2;;;;;;;3.66;94.13672;921.6746;;;;
2021/12/02 05:05:19;;;;;;;2.5;1.6;;;;;;;3.43;95.26563;921.6848;;;;
2021/12/02 05:07:48;;;;;;;1.6;1.3;;;;;;;3.45;95.26953;921.7575;;;;
2021/12/02 05:10:12;;;;;;;1.3;0.9;;;;;;;3.44;95.11035;921.8792;;;;
2021/12/02 05:12:40;;;;;;;1.1;1;;;;;;;3.57;95.19434;921.8749;;;;
2021/12/02 05:15:05;;;;;;;2.3;1.9;;;;;;;3.58;95.32031;921.8387;;;;
2021/12/02 05:17:34;;;;;;;6.3;2.7;;;;;;;3.66;95.2373;921.8642;;;;
2021/12/02 05:19:59;;;;;;;15.2;7.5;;;;;;;3.64;95.36816;921.8428;;;;
2021/12/02 05:22:24;;;;;;;28.1;13.4;;;;;;;3.65;95.67383;921.8428;;;;
2021/12/02 05:24:52;;;;;;;14.7;7.2;;;;;;;3.68;95.43262;921.7975;;;;
2021/12/02 05:27:17;;;;;;;17.2;8.4;;;;;;;3.75;95.38086;921.8239;;;;
2021/12/02 05:29:46;;;;;;;10.4;4.6;;;;;;;3.75;95.73926;921.8664;;;;
2021/12/02 05:32:11;;;;;;;8.5;4.4;;;;;;;3.64;95.33496;921.8632;;;;
2021/12/02 05:34:39;;;;;;;3.2;2.1;;;;;;;3.6;95.74219;921.8972;;;;
2021/12/02 05:37:04;;;;;;;1.8;1;;;;;;;3.64;93.53711;921.9089;;;;
2021/12/02 05:39:29;;;;;;;3.1;1.9;;;;;;;3.81;93.93262;921.9412;;;;
2021/12/02 05:41:55;;;;;;;8.4;5.1;;;;;;;3.72;94.8584;921.9135;;;;
2021/12/02 05:44:20;;;;;;;4.7;3.4;;;;;;;3.57;95.375;921.9496;;;;
2021/12/02 05:46:50;;;;;;;4.7;3.6;;;;;;;3.83;94.99512;921.8674;;;;
2021/12/02 05:49:20;;;;;;;2.5;1.8;;;;;;;3.69;95.18555;922.0108;;;;
2021/12/02 05:51:46;;;;;;;2.8;1.9;;;;;;;3.73;95.33203;921.9828;;;;
2021/12/02 05:54:15;;;;;;;2.4;1.5;;;;;;;3.83;94.73633;921.9634;;;;
2021/12/02 05:56:40;;;;;;;1.5;1.3;;;;;;;3.88;94.69238;921.9536;;;;
2021/12/02 05:59:09;;;;;;;1.4;1.3;;;;;;;4.02;93.93555;921.9147;;;;
2021/12/02 06:01:37;;;;;;;2.6;1.9;;;;;;;4.08;94.05957;921.9065;;;;
2021/12/02 06:04:04;;;;;;;2.9;2;;;;;;;4.08;93.99414;921.9175;;;;
2021/12/02 06:06:29;;;;;;;4.2;2.3;;;;;;;3.9;95.15723;921.9892;;;;
2021/12/02 06:08:57;;;;;;;2.8;1.8;;;;;;;4.02;95.0459;921.9761;;;;
2021/12/02 06:11:23;;;;;;;5.5;3.2;;;;;;;4.09;94.75879;921.9278;;;;
2021/12/02 06:13:50;;;;;;;5.5;3.5;;;;;;;4.13;94.47656;921.9406;;;;
2021/12/02 06:16:23;;;;;;;5.6;4.3;;;;;;;4.11;94.38281;921.8689;;;;
2021/12/02 06:18:48;;;;;;;15.7;7.8;;;;;;;4.1;93.70508;921.883;;;;
2021/12/02 06:21:14;;;;;;;11.1;5.6;;;;;;;4.07;93.9209;921.9119;;;;
2021/12/02 06:23:40;;;;;;;10.6;5.2;;;;;;;4.01;94.06641;921.8201;;;;
2021/12/02 06:26:04;;;;;;;9.3;4.9;;;;;;;4.06;94.06641;921.8481;;;;
2021/12/02 06:28:33;;;;;;;2.8;2.1;;;;;;;4.09;93.95996;921.8632;;;;
2021/12/02 06:31:02;;;;;;;4.4;2.7;;;;;;;4.15;93.53516;921.8526;;;;
2021/12/02 06:33:26;;;;;;;2;1.8;;;;;;;4.18;92.9248;921.8072;;;;
2021/12/02 06:35:56;;;;;;;2.1;1.6;;;;;;;4.13;92.59766;921.8588;;;;
2021/12/02 06:38:23;;;;;;;2.5;1.7;;;;;;;4.08;93.19531;921.9199;;;;
2021/12/02 06:40:48;;;;;;;2.2;1.5;;;;;;;4.13;92.71191;921.8801;;;;
2021/12/02 06:43:16;;;;;;;1;1;;;;;;;4.13;92.51953;921.8887;;;;
2021/12/02 06:45:41;;;;;;;2.9;1.9;;;;;;;4.17;92.62793;921.9158;;;;
2021/12/02 06:48:06;;;;;;;2.7;1.9;;;;;;;4.02;93.05762;921.9612;;;;
2021/12/02 06:50:34;;;;;;;2.1;1.9;;;;;;;4.13;93.35352;921.932;;;;
2021/12/02 06:52:58;;;;;;;3.3;1.8;;;;;;;3.98;94.20605;922.0457;;;;
2021/12/02 06:55:24;;;;;;;3.4;2.6;;;;;;;3.87;94.68652;922.0007;;;;
2021/12/02 06:57:49;;;;;;;4.1;3.1;;;;;;;3.89;94.89453;921.9741;;;;
2021/12/02 07:00:19;;;;;;;4.3;2.9;;;;;;;3.93;95.02637;921.9067;;;;
2021/12/02 07:02:44;;;;;;;3.1;2.4;;;;;;;3.86;94.74219;922.0006;;;;
2021/12/02 07:05:11;;;;;;;4.9;3;;;;;;;3.92;94.67578;921.9507;;;;
2021/12/02 07:07:37;;;;;;;5.7;3.6;;;;;;;3.95;94.22266;921.973;;;;
2021/12/02 07:10:03;;;;;;;3.2;2.8;;;;;;;3.88;94.38867;922.03;;;;
2021/12/02 07:12:32;;;;;;;5.2;3.1;;;;;;;3.85;94.41406;922.0722;;;;
2021/12/02 07:14:52;;;;;;;5.3;3.7;;;;;;;3.85;94.36914;922.0517;;;;
2021/12/02 07:17:32;;;;;;;4.2;3.3;;;;;;;3.85;94.42578;922.0864;;;;
2021/12/02 07:19:58;;;;;;;5.4;3.6;;;;;;;3.86;94.31543;922.0778;;;;
2021/12/02 07:22:23;;;;;;;6.4;3.8;;;;;;;3.81;94.31641;922.1167;;;;
2021/12/02 07:24:54;;;;;;;6;3.7;;;;;;;3.92;94.40625;922.1191;;;;
2021/12/02 07:27:25;;;;;;;6.1;3.9;;;;;;;3.93;94.48828;922.1539;;;;
2021/12/02 07:29:51;;;;;;;5.3;3.3;;;;;;;3.82;94.49805;922.1208;;;;
2021/12/02 07:32:16;;;;;;;6.8;4.6;;;;;;;3.89;94.53711;922.0284;;;;
2021/12/02 07:34:42;;;;;;;6;4.4;;;;;;;3.96;94;922.0722;;;;
2021/12/02 07:37:08;;;;;;;19.6;14.2;;;;;;;4.03;93.84668;922.051;;;;
2021/12/02 07:39:33;;;;;;;9.7;6.3;;;;;;;3.97;93.77734;922.0275;;;;
2021/12/02 07:42:01;;;;;;;6.5;3.6;;;;;;;3.91;93.82129;922.1231;;;;
2021/12/02 07:44:26;;;;;;;6.4;4.8;;;;;;;3.87;94.20508;922.1133;;;;
2021/12/02 07:46:52;;;;;;;6.3;4.2;;;;;;;3.93;93.99414;922.087;;;;
2021/12/02 07:49:17;;;;;;;4.1;2.5;;;;;;;4.01;93.52832;922.0808;;;;
2021/12/02 07:51:44;;;;;;;5.3;2.9;;;;;;;3.98;93.5;922.0622;;;;
2021/12/02 07:54:10;;;;;;;2.9;2.3;;;;;;;4.07;92.7168;921.9796;;;;
2021/12/02 07:56:39;;;;;;;3;2.5;;;;;;;3.66;94.14551;922.053;;;;
2021/12/02 07:59:05;;;;;;;3.5;2.8;;;;;;;3.64;94.66992;922.0701;;;;
2021/12/02 08:01:31;;;;;;;4.7;3.2;;;;;;;3.72;94.54395;922.0457;;;;
2021/12/02 08:03:56;;;;;;;3.1;2.8;;;;;;;3.81;93.80859;922.1074;;;;
2021/12/02 08:06:24;;;;;;;7.3;4.4;;;;;;;3.83;93.27539;922.1838;;;;
2021/12/02 08:08:48;;;;;;;14.5;10.7;;;;;;;3.94;92.84863;922.1036;;;;
2021/12/02 08:11:14;;;;;;;3.8;2.4;;;;;;;3.71;93.34863;922.066;;;;
2021/12/02 08:13:40;;;;;;;2.4;2;;;;;;;3.53;94.16211;922.0233;;;;
2021/12/02 08:16:08;;;;;;;1.9;1.7;;;;;;;3.67;94.37402;922.0469;;;;
2021/12/02 08:18:37;;;;;;;2.5;2.3;;;;;;;3.87;93.81152;922.0842;;;;
2021/12/02 08:21:01;;;;;;;3.9;2.5;;;;;;;3.92;93.39355;922.0884;;;;
2021/12/02 08:23:27;;;;;;;3.9;2.6;;;;;;;4.08;92.19238;922.0726;;;;
2021/12/02 08:25:53;;;;;;;3.5;3.2;;;;;;;4.12;92.13477;922.0927;;;;
2021/12/02 08:28:19;;;;;;;4.8;3.7;;;;;;;4.26;92.64746;922.0025;;;;
2021/12/02 08:30:44;;;;;;;3.1;2.8;;;;;;;4.49;91.33691;922.0396;;;;
2021/12/02 08:33:13;;;;;;;4.4;2.9;;;;;;;4.16;91.16602;922.1117;;;;
2021/12/02 08:35:37;;;;;;;5.9;4.1;;;;;;;4.13;92.02441;922.0706;;;;
2021/12/02 08:38:07;;;;;;;7.6;5;;;;;;;4.25;91.4873;922.0497;;;;
2021/12/02 08:44:18;;;;;;;3.1;2.5;;;;;;;3.66;94.22656;922.0995;;;;
2021/12/02 08:46:43;;;;;;;3.6;2.7;;;;;;;3.53;95.20703;922.1476;;;;
2021/12/02 08:49:09;;;;;;;3.6;2.6;;;;;;;3.43;95.75977;922.0829;;;;
2021/12/02 08:51:34;;;;;;;4;3;;;;;;;3.67;95.30664;922.1153;;;;
2021/12/02 08:54:01;;;;;;;5.2;4.1;;;;;;;3.9;94.48047;922.1199;;;;
2021/12/02 08:56:26;;;;;;;5;3.8;;;;;;;4.15;94.22168;922.1811;;;;
2021/12/02 08:58:52;;;;;;;4.5;3.6;;;;;;;4.36;92.41016;922.1764;;;;
2021/12/02 09:01:17;;;;;;;5.2;3.3;;;;;;;4.49;91.39258;922.1941;;;;
2021/12/02 09:03:45;;;;;;;4.3;3.5;;;;;;;4.64;90.1416;922.2283;;;;
2021/12/02 09:06:11;;;;;;;4.4;2.7;;;;;;;4.53;90.46582;922.225;;;;
2021/12/02 09:08:35;;;;;;;4;3;;;;;;;4.6;90.18848;922.2222;;;;
2021/12/02 09:11:03;;;;;;;3.9;2.6;;;;;;;4.81;89.36523;922.2381;;;;
2021/12/02 09:13:27;;;;;;;11.9;7.6;;;;;;;4.92;88.48828;922.2031;;;;
2021/12/02 09:15:56;;;;;;;7.4;6;;;;;;;4.96;87.68457;922.1244;;;;
2021/12/02 09:18:21;;;;;;;5.2;3.1;;;;;;;4.96;86.92871;922.2001;;;;
2021/12/02 09:20:49;;;;;;;4.6;3.6;;;;;;;5;86.70117;922.1426;;;;
2021/12/02 09:23:14;;;;;;;3.4;3.1;;;;;;;4.81;87.88965;922.1663;;;;
2021/12/02 09:25:42;;;;;;;3.6;2.6;;;;;;;4.55;89.20898;922.188;;;;
2021/12/02 09:28:07;;;;;;;2.7;2.4;;;;;;;4.49;89.61426;922.1586;;;;
2021/12/02 09:30:38;;;;;;;4.1;2.8;;;;;;;4.46;89.8877;922.1379;;;;
2021/12/02 09:33:05;;;;;;;3.3;2.3;;;;;;;4.42;90.35352;922.1306;;;;
2021/12/02 09:35:30;;;;;;;14.8;10.9;;;;;;;4.34;91.14648;922.0494;;;;
2021/12/02 09:37:57;;;;;;;9.1;6.6;;;;;;;4.35;91.39551;922.0747;;;;
2021/12/02 09:40:22;;;;;;;4.7;3.6;;;;;;;4.32;92.02051;922.0974;;;;
2021/12/02 09:42:48;;;;;;;5.2;3.9;;;;;;;4.33;92.97852;922.0432;;;;
2021/12/02 09:45:13;;;;;;;3.9;2.5;;;;;;;4.47;92.66113;921.9363;;;;
2021/12/02 09:47:39;;;;;;;3.3;2;;;;;;;4.57;91.15137;921.8406;;;;
2021/12/02 09:50:06;;;;;;;1.7;1.6;;;;;;;4.3;90.81055;921.8506;;;;
2021/12/02 09:52:34;;;;;;;1.9;1.7;;;;;;;4.27;91.50195;921.7875;;;;
2021/12/02 09:54:58;;;;;;;1.6;1.4;;;;;;;4.42;91.7373;921.6682;;;;
2021/12/02 09:57:23;;;;;;;2;1.7;;;;;;;4.59;91.7207;921.6476;;;;
2021/12/02 09:59:50;;;;;;;1.9;1.7;;;;;;;4.62;90.85742;921.6355;;;;
2021/12/02 10:02:13;;;;;;;1.7;1.6;;;;;;;4.75;89.86035;921.617;;;;
2021/12/02 10:04:39;;;;;;;2;1.8;;;;;;;4.74;89.99219;921.647;;;;
2021/12/02 10:06:59;;;;;;;2.3;2;;;;;;;4.76;89.64844;921.673;;;;
2021/12/02 10:09:33;;;;;;;3.1;2.3;;;;;;;4.78;89.71973;921.6889;;;;
2021/12/02 10:11:53;;;;;;;3;2;;;;;;;4.68;90.87012;921.6301;;;;
2021/12/02 10:14:16;;;;;;;3.6;2.5;;;;;;;4.83;90.59668;921.6105;;;;
2021/12/02 10:16:48;;;;;;;4.1;3;;;;;;;4.94;90.02246;921.5478;;;;
2021/12/02 10:19:14;;;;;;;3.7;3;;;;;;;5;89.11328;921.4589;;;;
2021/12/02 10:21:40;;;;;;;4.4;2.8;;;;;;;5.05;89.31445;921.4814;;;;
2021/12/02 10:24:02;;;;;;;2.3;2.1;;;;;;;5.15;87.67773;921.4295;;;;
2021/12/02 10:26:27;;;;;;;2.6;2;;;;;;;5.15;87.50684;921.4067;;;;
2021/12/02 10:28:53;;;;;;;4.5;2.3;;;;;;;5.22;88.23242;921.3795;;;;
2021/12/02 10:31:17;;;;;;;1.3;0.7;;;;;;;5.43;87.38379;921.3777;;;;
2021/12/02 10:33:43;;;;;;;0.5;0.5;;;;;;;5.58;85.12598;921.3943;;;;
2021/12/02 10:36:07;;;;;;;0.9;0.8;;;;;;;5.82;83.01563;921.3412;;;;
2021/12/02 10:38:33;;;;;;;1.1;0.6;;;;;;;6.04;81.21777;921.3386;;;;
2021/12/02 10:40:58;;;;;;;0.8;0.6;;;;;;;6.32;79.09961;921.2949;;;;
2021/12/02 10:43:23;;;;;;;0.5;0.5;;;;;;;6.4;79.05664;921.2916;;;;
2021/12/02 10:45:48;;;;;;;1.1;1;;;;;;;6.58;77.76855;921.2683;;;;
2021/12/02 10:48:15;;;;;;;1.3;0.9;;;;;;;6.77;77.50684;921.2228;;;;
2021/12/02 10:50:40;;;;;;;1.1;1;;;;;;;6.93;77.11523;921.224;;;;
2021/12/02 10:53:06;;;;;;;1.3;1;;;;;;;6.93;76.13379;921.2643;;;;
2021/12/02 10:55:33;;;;;;;0.9;0.9;;;;;;;6.71;76.6709;921.2459;;;;
2021/12/02 10:57:58;;;;;;;0.9;0.9;;;;;;;6.75;78.0332;921.2079;;;;
2021/12/02 11:00:23;;;;;;;4.3;2.8;;;;;;;6.82;79.27051;921.1976;;;;
2021/12/02 11:02:49;;;;;;;1.9;1.7;;;;;;;6.6;78.91211;921.1607;;;;
2021/12/02 11:05:19;;;;;;;2.4;1.8;;;;;;;6.74;80.21777;921.219;;;;
2021/12/02 11:07:39;;;;;;;1.7;1.5;;;;;;;6.7;80.49219;921.1155;;;;
2021/12/02 11:10:08;;;;;;;1.4;1.3;;;;;;;6.38;81.34863;921.0908;;;;
2021/12/02 11:12:33;;;;;;;2.2;1.4;;;;;;;6.28;82.29102;921.0989;;;;
2021/12/02 11:15:01;;;;;;;3.1;1.1;;;;;;;6.25;81.61914;921.0223;;;;
2021/12/02 11:17:32;;;;;;;1.3;1.2;;;;;;;6.19;82.96484;920.993;;;;
2021/12/02 11:19:53;;;;;;;1.5;0.9;;;;;;;5.97;81.8916;921.0263;;;;
2021/12/02 11:22:19;;;;;;;0.9;0.9;;;;;;;6.06;82.67676;920.9956;;;;
2021/12/02 11:24:45;;;;;;;3.2;1.3;;;;;;;5.93;83.01367;920.9576;;;;
2021/12/02 11:27:11;;;;;;;2.7;1.3;;;;;;;6.29;82.83496;920.8974;;;;
2021/12/02 11:29:36;;;;;;;3.3;1.7;;;;;;;6.58;80.08691;920.8714;;;;
2021/12/02 11:32:01;;;;;;;2.5;2.1;;;;;;;6.89;79.73535;920.835;;;;
2021/12/02 11:34:26;;;;;;;3.4;2.6;;;;;;;6.74;79.25586;920.8038;;;;
2021/12/02 11:36:52;;;;;;;4.8;2.5;;;;;;;6.73;79.99023;920.8702;;;;
2021/12/02 11:39:17;;;;;;;3.8;2.8;;;;;;;6.52;79.1123;920.8542;;;;
2021/12/02 11:41:42;;;;;;;4.1;2.9;;;;;;;6.35;79.50098;920.8466;;;;
2021/12/02 11:44:09;;;;;;;4.8;3.2;;;;;;;6.5;79.22363;920.8575;;;;
2021/12/02 11:46:34;;;;;;;3.7;2.3;;;;;;;6.82;79.08984;920.8409;;;;
2021/12/02 11:49:01;;;;;;;2.2;1.5;;;;;;;7.11;78.60938;920.7556;;;;
2021/12/02 11:51:26;;;;;;;1.7;1.5;;;;;;;7.56;76.78809;920.7935;;;;
2021/12/02 11:53:53;;;;;;;2.7;2;;;;;;;8.1;75.66895;920.8063;;;;
2021/12/02 11:56:18;;;;;;;2.1;1.7;;;;;;;7.89;74.16895;920.7928;;;;
2021/12/02 11:58:44;;;;;;;1.7;1.5;;;;;;;7.33;74.77441;920.7489;;;;
2021/12/02 12:01:09;;;;;;;1.6;1.5;;;;;;;7.61;74.3584;920.7361;;;;
2021/12/02 12:03:34;;;;;;;5.1;3.7;;;;;;;7.35;74.85742;920.7369;;;;
2021/12/02 12:05:59;;;;;;;3.9;3.1;;;;;;;7.48;74.56348;920.6919;;;;
2021/12/02 12:08:25;;;;;;;5.5;2.6;;;;;;;7.76;74.63281;920.6962;;;;
2021/12/02 12:10:50;;;;;;;2.6;1.9;;;;;;;8.11;74.75293;920.6658;;;;
2021/12/02 12:13:15;;;;;;;2.3;1.4;;;;;;;8.2;74.67773;920.6125;;;;
2021/12/02 12:15:41;;;;;;;1.9;1.3;;;;;;;8.41;74.39551;920.6247;;;;
2021/12/02 12:18:06;;;;;;;1.7;1.3;;;;;;;8.51;73.40137;920.6006;;;;
2021/12/02 12:20:32;;;;;;;2.1;1.1;;;;;;;8.52;73.57324;920.5616;;;;
2021/12/02 12:22:57;;;;;;;1.3;1;;;;;;;8.44;73.03809;920.5887;;;;
2021/12/02 12:25:26;;;;;;;2.2;1.6;;;;;;;8.18;72.28906;920.5557;;;;
2021/12/02 12:27:54;;;;;;;1.3;1.1;;;;;;;8.13;71.33789;920.5714;;;;
2021/12/02 12:30:24;;;;;;;1.3;1;;;;;;;8.1;70.83398;920.5209;;;;
2021/12/02 12:32:56;;;;;;;1.8;1.1;;;;;;;7.69;69.00781;920.498;;;;
2021/12/02 12:35:21;;;;;;;1.4;1.3;;;;;;;7.78;72.94727;920.6017;;;;
2021/12/02 12:37:49;;;;;;;1.4;1.3;;;;;;;7.86;71.74707;920.63;;;;
2021/12/02 12:40:05;;;;;;;1.6;1.2;;;;;;;8;70.18066;920.5613;;;;
2021/12/02 12:42:30;;;;;;;2;1.3;;;;;;;8.17;70.35742;920.5883;;;;
2021/12/02 12:44:56;;;;;;;2.7;1.1;;;;;;;8.15;66.67383;920.4609;;;;
2021/12/02 12:47:21;;;;;;;1.4;0.9;;;;;;;8.2;67.38574;920.435;;;;
2021/12/02 12:49:46;;;;;;;1.6;0.9;;;;;;;8.16;66.85742;920.4197;;;;
2021/12/02 12:52:11;;;;;;;1.7;1;;;;;;;8.21;67.42188;920.4202;;;;
2021/12/02 12:54:37;;;;;;;1.8;0.9;;;;;;;8.44;66.5957;920.4269;;;;
2021/12/02 12:57:01;;;;;;;1.6;1.2;;;;;;;8.39;67.47363;920.412;;;;
2021/12/02 12:59:26;;;;;;;2.7;2.1;;;;;;;7.96;72.02441;920.366;;;;
2021/12/02 13:01:52;;;;;;;4.2;1.6;;;;;;;7.66;71.44141;920.4302;;;;
2021/12/02 13:04:23;;;;;;;2.2;1.1;;;;;;;7.74;69.01465;920.3463;;;;
2021/12/02 13:06:49;;;;;;;2.4;1.5;;;;;;;7.66;70.70313;920.4041;;;;
2021/12/02 13:09:14;;;;;;;2.3;1.5;;;;;;;7.48;72.95215;920.4283;;;;
2021/12/02 13:11:39;;;;;;;1.8;1.4;;;;;;;7.05;74.56543;920.4;;;;
2021/12/02 13:14:04;;;;;;;1.9;1.5;;;;;;;7.18;73.68262;920.4504;;;;
2021/12/02 13:16:31;;;;;;;2.2;1.7;;;;;;;7.2;74.57129;920.4068;;;;
2021/12/02 13:18:57;;;;;;;1.4;1.1;;;;;;;7.2;72.97363;920.4068;;;;
2021/12/02 13:21:29;;;;;;;1.5;1.4;;;;;;;7.24;73.73926;920.5122;;;;
2021/12/02 13:23:52;;;;;;;1.7;1.5;;;;;;;7.11;72.42578;920.4977;;;;
2021/12/02 13:26:17;;;;;;;1.9;1.5;;;;;;;6.84;74.38379;920.5219;;;;
2021/12/02 13:28:42;;;;;;;3.5;2;;;;;;;6.92;74.5;920.5594;;;;
2021/12/02 13:31:11;;;;;;;3;1.8;;;;;;;6.99;74.50098;920.5906;;;;
2021/12/02 13:33:35;;;;;;;2.2;1.3;;;;;;;6.93;73.91113;920.6781;;;;
2021/12/02 13:36:01;;;;;;;1.4;0.8;;;;;;;6.66;73.23242;920.7464;;;;
2021/12/02 13:38:27;;;;;;;0.6;0.5;;;;;;;6.68;73.39551;920.7375;;;;
2021/12/02 13:40:52;;;;;;;1.5;0.8;;;;;;;6.58;73.30859;920.6872;;;;
2021/12/02 13:43:18;;;;;;;0.6;0.6;;;;;;;6.46;72.57617;920.5335;;;;
2021/12/02 13:45:42;;;;;;;1.4;0.7;;;;;;;6.16;74.7168;920.5482;;;;
2021/12/02 13:48:10;;;;;;;0.9;0.6;;;;;;;6.01;75.00781;920.5502;;;;
2021/12/02 13:50:32;;;;;;;1;0.6;;;;;;;5.91;76.15625;920.4877;;;;
2021/12/02 13:52:59;;;;;;;0.9;0.8;;;;;;;5.79;76.82227;920.5284;;;;
2021/12/02 13:55:28;;;;;;;0.9;0.7;;;;;;;5.89;76.85156;920.5681;;;;
2021/12/02 13:57:51;;;;;;;2.8;0.9;;;;;;;5.98;77.07129;920.61;;;;
2021/12/02 14:00:18;;;;;;;11.5;6.6;;;;;;;5.89;76.71777;920.598;;;;
2021/12/02 14:02:43;;;;;;;9.1;4.3;;;;;;;5.94;77.42578;920.5801;;;;
2021/12/02 14:05:13;;;;;;;4.7;2.6;;;;;;;5.95;76.94043;920.5074;;;;
2021/12/02 14:07:39;;;;;;;19;8.6;;;;;;;6.14;78.60352;920.5823;;;;
2021/12/02 14:10:05;;;;;;;8.1;4;;;;;;;6.19;78.69043;920.5829;;;;
2021/12/02 14:12:37;;;;;;;3.8;1.9;;;;;;;6.05;76.58691;920.5706;;;;
2021/12/02 14:15:02;;;;;;;3.1;1.9;;;;;;;6.19;76.42871;920.5086;;;;
2021/12/02 14:17:28;;;;;;;2.4;1.6;;;;;;;6.07;76.68066;920.5564;;;;
2021/12/02 14:19:53;;;;;;;2.3;1.4;;;;;;;5.97;77.4082;920.5485;;;;
2021/12/02 14:22:21;;;;;;;4.7;2.1;;;;;;;5.96;77.00977;920.5903;;;;
2021/12/02 14:24:45;;;;;;;2.7;1.4;;;;;;;6.03;77.14648;920.592;;;;
2021/12/02 14:27:10;;;;;;;3.8;1.5;;;;;;;6.17;76.68652;920.6193;;;;
2021/12/02 14:29:38;;;;;;;3.7;2;;;;;;;6.3;77.12891;920.5014;;;;
2021/12/02 14:32:05;;;;;;;1.8;1.3;;;;;;;6.17;75.13867;920.5253;;;;
2021/12/02 14:34:29;;;;;;;3;1.8;;;;;;;6.18;75.38867;920.5126;;;;
2021/12/02 14:36:55;;;;;;;4.7;1.7;;;;;;;6.26;76.24902;920.5222;;;;
2021/12/02 14:39:25;;;;;;;1.9;0.9;;;;;;;6.22;76.71875;920.5452;;;;
2021/12/02 14:41:49;;;;;;;0.6;0.4;;;;;;;6.21;75.13379;920.5792;;;;
2021/12/02 14:44:16;;;;;;;0.4;0.4;;;;;;;6.09;74.12988;920.5966;;;;
2021/12/02 14:46:41;;;;;;;0.6;0.6;;;;;;;5.91;75.22754;920.5889;;;;
2021/12/02 14:49:06;;;;;;;1;0.7;;;;;;;5.87;74.97266;920.6076;;;;
2021/12/02 14:51:32;;;;;;;1.3;1.1;;;;;;;5.95;75.57324;920.6195;;;;
2021/12/02 14:53:57;;;;;;;3.6;1.7;;;;;;;5.86;76.62012;920.617;;;;